Time;durP1;ratioP1;P1;durP2;ratioP2;P2;SDS_P1;SDS_P2;PMS_P1;PMS_P2;Temp;Humidity;BMP_temperature;BMP_pressure;BME280_temperature;BME280_humidity;BME280_pressure;Samples;Min_cycle;Max_cycle;Signal;HPM_P1;HPM_P2
2021/12/17 05:01:15;;;;;;;21.97;13.73;;;5.80;99.90;;;;;;5579408;23;20517;-76
2021/12/17 05:03:43;;;;;;;23.53;14.23;;;5.80;99.90;;;;;;4956693;29;20492;-77
2021/12/17 05:06:10;;;;;;;20.97;14.23;;;5.80;99.90;;;;;;4956695;29;20496;-77
2021/12/17 05:08:37;;;;;;;22.17;13.03;;;5.80;99.90;;;;;;4956623;29;20547;-77
2021/12/17 05:11:27;;;;;;;22.03;13.73;;;5.80;99.90;;;;;;4956646;29;20995;-77
2021/12/17 05:19:37;;;;;;;19.80;13.60;;;5.90;99.90;;;;;;4955621;29;20448;-77
2021/12/17 05:22:09;;;;;;;29.27;15.00;;;5.80;99.90;;;;;;4955756;28;20896;-77
2021/12/17 05:24:36;;;;;;;24.37;14.40;;;5.80;99.90;;;;;;4956016;29;20499;-77
2021/12/17 05:27:04;;;;;;;20.23;13.70;;;5.80;99.90;;;;;;4955838;29;20536;-78
2021/12/17 05:29:31;;;;;;;17.97;12.73;;;5.80;99.90;;;;;;4955373;29;20456;-77
2021/12/17 05:31:59;;;;;;;26.23;12.43;;;5.80;99.90;;;;;;4955365;29;20669;-77
2021/12/17 05:34:26;;;;;;;19.90;13.33;;;5.80;99.90;;;;;;4955888;29;20869;-77
2021/12/17 05:36:53;;;;;;;19.97;12.93;;;5.80;99.90;;;;;;4954928;29;20488;-69
2021/12/17 05:39:20;;;;;;;22.80;14.10;;;5.80;99.90;;;;;;4954553;29;20488;-68
2021/12/17 05:41:47;;;;;;;21.63;12.73;;;5.80;99.90;;;;;;4954656;28;20565;-68
2021/12/17 05:44:17;;;;;;;22.73;13.27;;;5.80;99.90;;;;;;4954823;29;20500;-75
2021/12/17 05:46:49;;;;;;;25.13;13.20;;;5.80;99.90;;;;;;4954940;29;20480;-75
2021/12/17 05:49:19;;;;;;;20.00;12.67;;;5.80;99.90;;;;;;4954493;29;20463;-74
2021/12/17 05:51:46;;;;;;;17.13;12.43;;;5.80;99.90;;;;;;4954399;29;20505;-75
2021/12/17 05:54:13;;;;;;;20.93;12.10;;;5.80;99.90;;;;;;4954206;29;20536;-75
2021/12/17 05:56:40;;;;;;;19.67;12.13;;;5.80;99.90;;;;;;4954449;29;20552;-75
2021/12/17 05:59:07;;;;;;;18.40;11.90;;;5.80;99.90;;;;;;4954458;29;20449;-75
2021/12/17 06:01:34;;;;;;;16.93;11.50;;;5.80;99.90;;;;;;4954373;29;20512;-75
2021/12/17 06:04:02;;;;;;;16.97;11.43;;;5.70;99.90;;;;;;4953884;29;20497;-75
2021/12/17 06:06:32;;;;;;;18.20;11.20;;;5.70;99.90;;;;;;4954105;28;20493;-75
2021/12/17 06:09:01;;;;;;;17.20;11.17;;;5.70;99.90;;;;;;4954170;29;20457;-75
2021/12/17 06:11:28;;;;;;;20.10;12.00;;;5.70;99.90;;;;;;4954427;29;20847;-75
2021/12/17 06:13:54;;;;;;;20.03;12.67;;;5.70;99.90;;;;;;4954284;29;20972;-75
2021/12/17 06:16:21;;;;;;;19.10;12.73;;;5.70;99.90;;;;;;4954505;29;20595;-75
2021/12/17 06:18:48;;;;;;;16.77;11.00;;;5.70;99.90;;;;;;4954051;29;20484;-75
2021/12/17 06:21:17;;;;;;;21.00;12.67;;;5.80;99.90;;;;;;4954048;29;20468;-75
2021/12/17 06:23:45;;;;;;;16.20;10.93;;;5.80;99.90;;;;;;4953507;29;20874;-75
2021/12/17 06:26:12;;;;;;;17.63;11.20;;;5.80;99.90;;;;;;4954013;28;20547;-74
2021/12/17 06:28:39;;;;;;;21.00;11.53;;;5.80;99.90;;;;;;4953374;29;20463;-75
2021/12/17 06:31:06;;;;;;;28.90;11.17;;;5.80;99.90;;;;;;4953670;29;20583;-74
2021/12/17 06:33:32;;;;;;;17.43;11.27;;;5.80;99.90;;;;;;4953128;28;20541;-76
2021/12/17 06:35:59;;;;;;;14.20;9.80;;;5.80;99.90;;;;;;4953458;29;20500;-75
2021/12/17 06:38:26;;;;;;;18.30;11.33;;;5.80;99.90;;;;;;4953772;29;20556;-75
2021/12/17 06:40:57;;;;;;;17.83;11.47;;;5.80;99.90;;;;;;4953826;29;20564;-75
2021/12/17 06:43:31;;;;;;;16.20;10.50;;;5.80;99.90;;;;;;4953884;28;20488;-75
2021/12/17 06:46:11;;;;;;;16.10;10.73;;;5.70;99.90;;;;;;4953905;28;20464;-75
2021/12/17 06:48:38;;;;;;;16.57;11.13;;;5.70;99.90;;;;;;4953469;29;20799;-75
2021/12/17 06:59:36;;;;;;;13.33;9.33;;;5.60;99.90;;;;;;4921239;28;20901;-75
2021/12/17 07:10:41;;;;;;;15.10;10.40;;;5.40;99.90;;;;;;4934347;29;20434;-75
2021/12/17 07:19:35;;;;;;;15.80;10.23;;;5.30;99.90;;;;;;4934451;29;21058;-75
2021/12/17 07:22:01;;;;;;;15.10;9.93;;;5.30;99.90;;;;;;4932356;29;20470;-75
2021/12/17 07:24:50;;;;;;;14.13;10.13;;;5.30;99.90;;;;;;4937339;29;21056;-74
2021/12/17 07:33:05;;;;;;;19.03;10.40;;;5.20;99.90;;;;;;4933985;29;20809;-75
2021/12/17 07:35:52;;;;;;;20.10;10.90;;;5.10;99.90;;;;;;4934168;29;20808;-75
2021/12/17 07:38:38;;;;;;;15.57;9.97;;;5.10;99.90;;;;;;4934118;29;20457;-75
2021/12/17 07:41:07;;;;;;;17.77;11.60;;;5.10;99.90;;;;;;4934011;29;20978;-75
2021/12/17 07:43:39;;;;;;;15.93;9.93;;;5.00;99.90;;;;;;4934151;29;20584;-75
2021/12/17 07:46:09;;;;;;;14.93;9.63;;;5.00;99.90;;;;;;4936218;29;20519;-75
2021/12/17 07:48:37;;;;;;;18.43;10.30;;;5.00;99.90;;;;;;4937622;29;20903;-75
2021/12/17 07:51:06;;;;;;;15.03;8.93;;;5.10;99.90;;;;;;4937924;29;20470;-75
2021/12/17 07:53:34;;;;;;;16.67;10.50;;;5.00;99.90;;;;;;4955908;28;20536;-76
2021/12/17 07:56:02;;;;;;;17.63;11.73;;;5.00;99.90;;;;;;4957020;28;20568;-75
2021/12/17 07:58:29;;;;;;;24.37;12.80;;;5.00;99.90;;;;;;4956713;29;20487;-75
2021/12/17 08:00:57;;;;;;;20.93;13.73;;;5.00;99.90;;;;;;4956416;28;20484;-75
2021/12/17 08:03:26;;;;;;;18.50;11.07;;;5.00;99.90;;;;;;4956508;28;20583;-75
2021/12/17 08:05:53;;;;;;;17.60;11.60;;;5.00;99.90;;;;;;4956486;29;20555;-75
2021/12/17 08:08:21;;;;;;;21.00;12.77;;;5.00;99.90;;;;;;4956736;29;20528;-76
2021/12/17 08:10:48;;;;;;;20.40;14.27;;;4.90;99.90;;;;;;4956484;28;20556;-76
2021/12/17 08:13:20;;;;;;;20.47;13.40;;;4.90;99.90;;;;;;4956160;29;20996;-76
2021/12/17 08:16:04;;;;;;;22.60;13.97;;;5.00;99.90;;;;;;4947384;29;20444;-75
2021/12/17 08:18:54;;;;;;;22.27;14.03;;;5.00;99.90;;;;;;4954868;28;20457;-75
2021/12/17 08:24:45;;;;;;;19.40;13.50;;;5.00;99.90;;;;;;4950109;29;21020;-76
2021/12/17 08:27:26;;;;;;;19.60;13.00;;;5.00;99.90;;;;;;4950907;29;20507;-75
2021/12/17 08:30:07;;;;;;;21.37;12.07;;;5.00;99.90;;;;;;4956041;29;20459;-75
2021/12/17 08:32:34;;;;;;;20.67;13.30;;;5.00;99.90;;;;;;4955910;29;20976;-75
2021/12/17 08:35:02;;;;;;;17.13;11.10;;;5.00;99.90;;;;;;4955252;29;20594;-68
2021/12/17 08:37:31;;;;;;;17.37;10.97;;;5.00;99.90;;;;;;4955439;29;20877;-68
2021/12/17 08:39:57;;;;;;;19.30;11.70;;;5.10;99.90;;;;;;4955307;28;20499;-68
2021/12/17 08:42:24;;;;;;;14.90;10.20;;;5.10;99.90;;;;;;4955846;29;20552;-68
2021/12/17 08:44:51;;;;;;;15.37;10.60;;;5.10;99.90;;;;;;4955699;28;20583;-71
2021/12/17 08:47:18;;;;;;;19.20;12.60;;;5.20;99.90;;;;;;4955312;29;20533;-73
2021/12/17 08:49:46;;;;;;;20.53;11.93;;;5.20;99.90;;;;;;4955755;29;20552;-74
2021/12/17 08:52:14;;;;;;;21.40;13.30;;;5.30;99.90;;;;;;4955603;28;21031;-73
2021/12/17 08:54:41;;;;;;;23.07;14.30;;;5.20;99.90;;;;;;4955652;29;20535;-73
2021/12/17 08:57:09;;;;;;;20.07;13.37;;;5.20;99.90;;;;;;4954839;28;20540;-73
2021/12/17 08:59:36;;;;;;;15.00;10.03;;;5.20;99.90;;;;;;4955375;29;20450;-73
2021/12/17 09:02:04;;;;;;;16.47;10.10;;;5.20;99.90;;;;;;4955158;29;20576;-74
2021/12/17 09:04:31;;;;;;;16.17;10.83;;;5.20;99.90;;;;;;4955364;29;20496;-76
2021/12/17 09:06:58;;;;;;;15.47;10.73;;;5.30;99.90;;;;;;4955507;29;20484;-73
2021/12/17 09:09:27;;;;;;;15.03;9.80;;;5.40;99.90;;;;;;4955245;29;20453;-75
2021/12/17 09:11:54;;;;;;;17.60;10.53;;;5.40;99.90;;;;;;4955383;29;20477;-75
2021/12/17 09:14:21;;;;;;;16.77;10.93;;;5.40;99.90;;;;;;4955104;29;20485;-75
2021/12/17 09:16:49;;;;;;;16.17;10.40;;;5.50;99.90;;;;;;4955443;29;20507;-75
2021/12/17 09:19:16;;;;;;;22.23;14.27;;;5.60;99.90;;;;;;4954920;29;20512;-75
2021/12/17 09:21:43;;;;;;;20.83;11.70;;;5.80;99.90;;;;;;4955030;28;20556;-75
2021/12/17 09:24:11;;;;;;;15.30;10.33;;;5.70;99.90;;;;;;4955081;29;20587;-75
2021/12/17 09:26:39;;;;;;;15.90;10.57;;;5.80;99.90;;;;;;4954981;29;20875;-75
2021/12/17 09:29:06;;;;;;;14.77;10.30;;;5.80;99.90;;;;;;4953033;29;20866;-75
2021/12/17 09:31:33;;;;;;;15.70;9.47;;;5.90;99.90;;;;;;4954237;29;20578;-76
2021/12/17 09:34:00;;;;;;;14.27;10.27;;;6.00;99.90;;;;;;4954916;29;20495;-76
2021/12/17 09:36:27;;;;;;;15.63;10.47;;;6.00;99.90;;;;;;4955078;29;20543;-76
2021/12/17 09:38:54;;;;;;;13.37;9.03;;;6.00;99.90;;;;;;4954822;29;20536;-75
2021/12/17 09:41:22;;;;;;;11.43;8.77;;;6.10;99.90;;;;;;4954878;28;20924;-76
2021/12/17 09:43:50;;;;;;;14.83;9.20;;;6.20;99.90;;;;;;4954279;28;20583;-76
2021/12/17 09:46:18;;;;;;;12.87;9.50;;;6.20;99.90;;;;;;4954007;28;20536;-76
2021/12/17 09:48:47;;;;;;;12.50;8.63;;;6.30;99.90;;;;;;4954024;29;20544;-76
2021/12/17 09:51:15;;;;;;;11.70;9.50;;;6.30;99.90;;;;;;4953853;29;20491;-76
2021/12/17 09:53:42;;;;;;;11.13;8.50;;;6.40;99.90;;;;;;4953754;29;20453;-76
2021/12/17 09:56:10;;;;;;;14.03;9.50;;;6.40;99.90;;;;;;4953667;29;20556;-76
2021/12/17 09:58:37;;;;;;;12.00;8.07;;;6.50;99.90;;;;;;4953573;28;20977;-76
2021/12/17 10:01:06;;;;;;;13.77;8.50;;;6.50;99.90;;;;;;4953467;29;20568;-76
2021/12/17 10:03:33;;;;;;;13.87;8.73;;;6.60;99.90;;;;;;4953607;29;20484;-76
2021/12/17 10:06:00;;;;;;;11.63;8.40;;;6.70;99.90;;;;;;4953439;29;20544;-76
2021/12/17 10:08:27;;;;;;;10.90;7.70;;;6.90;99.90;;;;;;4952811;28;20532;-76
2021/12/17 10:10:57;;;;;;;10.60;7.43;;;7.00;99.90;;;;;;4952694;28;20538;-76
2021/12/17 10:13:28;;;;;;;9.20;7.33;;;7.10;99.90;;;;;;4953572;28;20535;-76
2021/12/17 10:15:58;;;;;;;13.67;7.83;;;7.10;99.90;;;;;;4953371;29;20532;-76
2021/12/17 10:18:37;;;;;;;10.97;8.43;;;7.20;99.90;;;;;;4953240;29;20539;-76
2021/12/17 10:21:07;;;;;;;10.13;7.60;;;7.30;99.90;;;;;;4952845;28;20576;-76
2021/12/17 10:23:34;;;;;;;10.20;7.70;;;7.30;99.90;;;;;;4953097;29;20547;-76
2021/12/17 10:26:02;;;;;;;8.57;6.23;;;7.40;99.90;;;;;;4952745;29;20903;-76
2021/12/17 10:28:30;;;;;;;11.30;7.23;;;7.50;99.90;;;;;;4952831;28;20535;-76
2021/12/17 10:30:57;;;;;;;11.60;7.87;;;7.60;99.90;;;;;;4952832;28;20481;-76
2021/12/17 10:33:27;;;;;;;9.60;6.90;;;7.60;99.90;;;;;;4953015;28;20532;-76
2021/12/17 10:36:00;;;;;;;7.97;6.20;;;7.70;99.90;;;;;;4952888;28;20461;-76
2021/12/17 10:38:27;;;;;;;10.00;6.80;;;7.80;99.90;;;;;;4952829;28;20461;-76
2021/12/17 10:41:01;;;;;;;9.23;6.40;;;7.90;99.90;;;;;;4952834;28;20636;-76
2021/12/17 10:43:33;;;;;;;7.53;5.73;;;8.00;99.90;;;;;;4952776;29;20551;-76
2021/12/17 10:46:05;;;;;;;6.60;5.30;;;8.10;99.90;;;;;;4952933;29;20460;-76
2021/12/17 10:48:37;;;;;;;8.60;6.23;;;8.20;99.90;;;;;;4952985;28;21138;-76
2021/12/17 10:51:29;;;;;;;7.13;5.80;;;8.30;99.90;;;;;;4952537;28;20493;-76
2021/12/17 10:53:58;;;;;;;8.70;6.07;;;8.60;99.90;;;;;;4952679;29;20445;-76
2021/12/17 10:56:27;;;;;;;8.53;5.83;;;8.60;99.90;;;;;;4952555;28;20484;-76
2021/12/17 10:58:59;;;;;;;8.40;6.17;;;8.70;99.90;;;;;;4952570;28;20520;-76
2021/12/17 11:01:33;;;;;;;7.20;5.90;;;8.80;99.90;;;;;;4952641;28;20563;-76
2021/12/17 11:04:12;;;;;;;7.73;5.83;;;8.80;99.90;;;;;;4951224;28;20493;-76
2021/12/17 11:06:45;;;;;;;8.17;6.20;;;9.10;99.90;;;;;;4951888;29;20524;-76
2021/12/17 11:09:12;;;;;;;11.17;6.60;;;9.10;99.90;;;;;;4951991;29;20929;-76
2021/12/17 11:11:42;;;;;;;8.40;6.10;;;9.30;99.90;;;;;;4952588;28;21072;-76
2021/12/17 11:14:09;;;;;;;7.03;6.20;;;9.50;99.90;;;;;;4952355;28;20456;-76
2021/12/17 11:16:38;;;;;;;6.43;5.70;;;9.80;99.90;;;;;;4953217;28;20484;-76
2021/12/17 11:19:06;;;;;;;6.53;5.37;;;9.90;99.90;;;;;;4952021;28;20489;-76
2021/12/17 11:21:34;;;;;;;6.10;5.00;;;10.00;99.90;;;;;;4954083;28;20512;-75
2021/12/17 11:24:03;;;;;;;7.23;5.83;;;10.20;99.90;;;;;;4956024;29;20579;-77
2021/12/17 11:26:30;;;;;;;7.50;5.87;;;10.30;99.90;;;;;;4957034;29;20476;-76
2021/12/17 11:29:02;;;;;;;7.60;5.70;;;10.40;99.90;;;;;;4957085;28;20484;-76
2021/12/17 11:31:31;;;;;;;8.73;5.90;;;10.40;99.90;;;;;;4957235;29;20532;-76
2021/12/17 11:33:59;;;;;;;7.00;5.00;;;10.40;99.90;;;;;;4957217;29;20547;-76
2021/12/17 11:36:28;;;;;;;6.23;4.93;;;10.50;99.90;;;;;;4957325;29;20551;-76
2021/12/17 11:39:03;;;;;;;5.30;4.50;;;10.60;99.90;;;;;;4949413;29;20508;-76
2021/12/17 11:41:54;;;;;;;5.03;4.20;;;10.60;99.90;;;;;;4957233;28;20507;-76
2021/12/17 11:44:28;;;;;;;6.73;4.20;;;10.70;99.90;;;;;;4956889;29;20579;-76
2021/12/17 11:47:03;;;;;;;4.73;4.07;;;10.70;99.90;;;;;;4957417;29;20452;-76
2021/12/17 11:49:36;;;;;;;5.87;4.80;;;10.70;99.90;;;;;;4957004;29;20483;-76
2021/12/17 11:52:03;;;;;;;4.67;3.80;;;10.80;99.90;;;;;;4957103;29;20473;-76
2021/12/17 11:54:32;;;;;;;7.47;3.70;;;10.90;99.90;;;;;;4957142;29;21028;-76
2021/12/17 11:57:08;;;;;;;4.93;3.80;;;10.90;99.90;;;;;;4957614;29;20457;-77
2021/12/17 11:59:41;;;;;;;4.97;3.87;;;10.90;99.90;;;;;;4956851;29;20449;-76
2021/12/17 12:02:15;;;;;;;5.40;4.13;;;11.00;99.90;;;;;;4956732;29;20531;-76
2021/12/17 12:04:54;;;;;;;5.97;4.63;;;11.00;99.90;;;;;;4956421;29;20851;-76
2021/12/17 12:07:33;;;;;;;4.97;4.30;;;10.90;99.90;;;;;;4967246;23;20500;-76
2021/12/17 12:10:24;;;;;;;5.30;3.70;;;10.90;99.90;;;;;;4975551;28;20455;-76
2021/12/17 12:13:01;;;;;;;5.27;4.10;;;11.00;99.90;;;;;;4972862;28;20888;-76
2021/12/17 12:15:39;;;;;;;7.97;4.50;;;11.00;99.90;;;;;;4975604;28;20458;-76
2021/12/17 12:18:09;;;;;;;6.13;4.57;;;11.10;99.90;;;;;;4965231;28;20531;-76
2021/12/17 12:20:49;;;;;;;4.90;3.60;;;11.10;99.90;;;;;;4956047;28;20452;-76
2021/12/17 12:23:18;;;;;;;4.63;4.20;;;11.20;99.90;;;;;;4956386;29;20491;-76
2021/12/17 12:25:46;;;;;;;4.43;4.03;;;11.20;99.90;;;;;;4956119;29;20527;-76
2021/12/17 12:28:16;;;;;;;6.67;4.80;;;11.10;99.90;;;;;;4956315;28;20504;-76
2021/12/17 12:30:45;;;;;;;5.60;4.47;;;11.10;99.90;;;;;;4956491;29;20529;-76
2021/12/17 12:33:14;;;;;;;5.23;4.00;;;11.10;99.90;;;;;;4953989;28;21156;-76
2021/12/17 12:35:57;;;;;;;6.00;4.60;;;11.10;99.90;;;;;;4955023;29;20449;-76
2021/12/17 12:38:32;;;;;;;5.80;4.20;;;11.00;99.90;;;;;;4954868;29;20988;-76
2021/12/17 12:41:01;;;;;;;5.03;4.50;;;11.00;99.90;;;;;;4955061;28;20455;-77
2021/12/17 12:43:31;;;;;;;5.70;4.50;;;11.10;99.90;;;;;;4955207;28;20456;-77
2021/12/17 12:45:58;;;;;;;6.83;5.30;;;11.00;99.90;;;;;;4954185;28;20524;-76
2021/12/17 12:48:30;;;;;;;5.90;5.20;;;10.90;99.90;;;;;;4947502;28;20545;-77
2021/12/17 12:51:18;;;;;;;5.80;5.20;;;10.90;99.90;;;;;;4945780;29;20537;-77
2021/12/17 12:53:47;;;;;;;7.00;5.50;;;10.80;99.90;;;;;;4938613;29;20538;-77
2021/12/17 12:56:19;;;;;;;8.13;6.03;;;10.80;99.90;;;;;;4935513;29;20449;-76
2021/12/17 12:58:50;;;;;;;8.57;6.37;;;10.80;99.90;;;;;;4935475;29;20501;-76
2021/12/17 13:01:20;;;;;;;7.77;6.40;;;10.70;99.90;;;;;;4935750;29;20457;-76
2021/12/17 13:03:48;;;;;;;9.57;7.33;;;10.50;99.90;;;;;;4935970;29;20465;-76
2021/12/17 13:06:17;;;;;;;9.67;7.77;;;10.60;99.90;;;;;;4935521;29;20581;-76
2021/12/17 13:08:52;;;;;;;12.37;8.93;;;10.50;99.90;;;;;;4935213;29;20564;-76
2021/12/17 13:11:19;;;;;;;10.43;8.20;;;10.40;99.90;;;;;;4937605;29;20489;-76
2021/12/17 13:13:52;;;;;;;11.53;8.20;;;10.30;99.90;;;;;;4938894;28;20458;-76
2021/12/17 13:16:34;;;;;;;11.17;8.37;;;10.20;99.90;;;;;;4936183;29;20460;-77
2021/12/17 13:21:59;;;;;;;12.67;9.70;;;10.10;99.90;;;;;;4936636;29;20440;-77
2021/12/17 13:24:29;;;;;;;11.20;9.10;;;10.10;99.90;;;;;;4944244;29;20457;-77
2021/12/17 13:26:58;;;;;;;16.60;9.10;;;10.00;99.90;;;;;;4944744;28;20517;-77
2021/12/17 13:29:31;;;;;;;13.07;9.50;;;10.00;99.90;;;;;;4935859;29;20458;-76
2021/12/17 13:32:01;;;;;;;13.90;9.50;;;10.00;99.90;;;;;;4935802;29;20462;-76
2021/12/17 13:34:31;;;;;;;11.70;9.27;;;10.00;99.90;;;;;;4934636;29;20460;-76
2021/12/17 13:37:07;;;;;;;11.47;9.30;;;10.00;99.90;;;;;;4933754;29;20497;-77
2021/12/17 13:39:37;;;;;;;11.33;9.40;;;9.90;99.90;;;;;;4933654;29;20970;-76
2021/12/17 13:42:04;;;;;;;11.80;9.27;;;9.90;99.90;;;;;;4934072;29;20901;-76
2021/12/17 13:44:43;;;;;;;10.40;8.63;;;9.90;99.90;;;;;;4933792;29;20454;-76
2021/12/17 13:47:19;;;;;;;11.33;9.20;;;9.80;99.90;;;;;;4934017;29;20917;-76
2021/12/17 13:49:48;;;;;;;11.70;9.33;;;9.70;99.90;;;;;;4935246;29;20449;-76
2021/12/17 13:52:16;;;;;;;11.93;9.73;;;9.60;99.90;;;;;;4935418;29;21038;-76
2021/12/17 13:54:46;;;;;;;10.83;8.73;;;9.60;99.90;;;;;;4935546;29;20461;-76
2021/12/17 13:57:16;;;;;;;11.07;8.93;;;9.50;99.90;;;;;;4935514;29;20942;-76
2021/12/17 13:59:45;;;;;;;11.43;8.93;;;9.40;99.90;;;;;;4935114;29;20587;-76
2021/12/17 14:02:16;;;;;;;12.53;8.57;;;9.40;99.90;;;;;;4935392;29;20552;-76
2021/12/17 14:04:44;;;;;;;10.00;8.60;;;9.40;99.90;;;;;;4935548;29;20454;-76
2021/12/17 14:07:12;;;;;;;8.93;7.63;;;9.30;99.90;;;;;;4935232;29;20509;-77
2021/12/17 14:09:39;;;;;;;11.67;7.87;;;9.20;99.90;;;;;;4935174;29;20824;-76
2021/12/17 14:12:12;;;;;;;11.43;8.40;;;9.20;99.90;;;;;;4935306;29;20480;-76
2021/12/17 14:14:39;;;;;;;11.53;9.13;;;9.10;99.90;;;;;;4936432;29;20445;-76
2021/12/17 14:17:09;;;;;;;11.90;8.73;;;9.10;99.90;;;;;;4945295;29;20878;-76
2021/12/17 14:19:44;;;;;;;12.33;8.67;;;9.10;99.90;;;;;;4943732;29;20454;-76
2021/12/17 14:22:24;;;;;;;9.83;8.10;;;9.00;99.90;;;;;;4942953;29;20481;-76
2021/12/17 14:24:51;;;;;;;11.10;8.63;;;9.00;99.90;;;;;;4950992;29;20453;-66
2021/12/17 14:27:18;;;;;;;13.57;10.17;;;8.90;99.90;;;;;;4954141;28;20482;-66
2021/12/17 14:29:45;;;;;;;12.00;9.27;;;8.90;99.90;;;;;;4953847;29;20868;-66
2021/12/17 14:32:17;;;;;;;13.93;10.30;;;8.70;99.90;;;;;;4953927;29;20540;-66
2021/12/17 14:34:45;;;;;;;12.83;9.70;;;8.60;99.90;;;;;;4953860;29;20945;-66
2021/12/17 14:37:12;;;;;;;16.33;10.57;;;8.60;99.90;;;;;;4953732;28;20559;-65
2021/12/17 14:39:44;;;;;;;12.87;10.30;;;8.50;99.90;;;;;;4953641;29;20461;-66
2021/12/17 14:42:13;;;;;;;10.40;8.83;;;8.40;99.90;;;;;;4953912;28;20465;-75
2021/12/17 14:44:52;;;;;;;13.57;10.47;;;8.40;99.90;;;;;;4953034;29;20953;-76
2021/12/17 14:47:24;;;;;;;15.77;11.17;;;8.40;99.90;;;;;;4951428;29;21053;-75
2021/12/17 15:01:10;;;;;;;15.10;10.50;;;8.10;99.90;;;;;;4934860;29;20481;-75
2021/12/17 15:03:41;;;;;;;17.20;10.40;;;8.10;99.90;;;;;;4935151;28;20462;-76
2021/12/17 15:06:11;;;;;;;14.40;10.00;;;8.00;99.90;;;;;;4934735;29;20520;-76
2021/12/17 15:08:38;;;;;;;21.53;10.17;;;8.00;99.90;;;;;;4934136;29;20481;-76
2021/12/17 15:11:15;;;;;;;15.03;9.97;;;7.90;99.90;;;;;;4934139;29;20489;-77
2021/12/17 15:13:42;;;;;;;12.47;10.00;;;7.90;99.90;;;;;;4934134;29;20485;-77
2021/12/17 15:16:09;;;;;;;15.33;10.30;;;7.80;99.90;;;;;;4935031;29;20493;-77
2021/12/17 15:18:37;;;;;;;17.08;11.65;;;7.80;99.90;;;;;;4934457;29;20577;-76
2021/12/17 15:21:06;;;;;;;13.20;10.20;;;7.70;99.90;;;;;;4934502;29;20213;-76
2021/12/17 15:23:35;;;;;;;15.03;11.03;;;7.70;99.90;;;;;;4934346;29;20947;-77
2021/12/17 15:26:03;;;;;;;14.73;10.03;;;7.70;99.90;;;;;;4934540;29;20496;-77
2021/12/17 15:28:31;;;;;;;11.77;10.00;;;7.80;99.90;;;;;;4934480;29;20928;-77
2021/12/17 15:31:02;;;;;;;13.93;10.87;;;7.80;99.90;;;;;;4934283;29;20536;-76
2021/12/17 15:33:29;;;;;;;14.80;10.10;;;7.80;99.90;;;;;;4934173;29;20473;-76
2021/12/17 15:35:56;;;;;;;12.00;9.43;;;7.80;99.90;;;;;;4934321;29;21001;-76
2021/12/17 15:38:24;;;;;;;13.60;9.50;;;7.80;99.90;;;;;;4934360;29;20477;-76
2021/12/17 15:40:53;;;;;;;15.57;10.40;;;7.70;99.90;;;;;;4934049;29;20489;-77
2021/12/17 15:43:21;;;;;;;16.57;10.27;;;7.70;99.90;;;;;;4934276;29;20481;-76
2021/12/17 15:45:50;;;;;;;14.60;9.83;;;7.60;99.90;;;;;;4934114;29;20552;-76
2021/12/17 15:48:19;;;;;;;14.10;10.23;;;7.60;99.90;;;;;;4933943;29;20488;-75
2021/12/17 15:50:46;;;;;;;16.37;11.37;;;7.60;99.90;;;;;;4934100;29;20553;-76
2021/12/17 15:53:14;;;;;;;15.07;10.70;;;7.60;99.90;;;;;;4934168;29;20542;-76
2021/12/17 15:55:41;;;;;;;16.00;11.77;;;7.50;99.90;;;;;;4934324;29;20454;-76
2021/12/17 15:58:09;;;;;;;16.30;11.10;;;7.40;99.90;;;;;;4934124;29;20481;-76
2021/12/17 16:00:37;;;;;;;17.10;10.97;;;7.30;99.90;;;;;;4933921;29;20840;-76
2021/12/17 16:03:06;;;;;;;14.53;10.13;;;7.30;99.90;;;;;;4935742;29;20457;-79
2021/12/17 16:05:35;;;;;;;15.63;11.43;;;7.30;99.90;;;;;;4936369;29;20913;-79
2021/12/17 16:08:04;;;;;;;18.13;12.40;;;7.20;99.90;;;;;;4937826;29;20540;-78
2021/12/17 16:18:56;;;;;;;15.27;10.77;;;7.20;99.90;;;;;;4941188;29;20992;-75
2021/12/17 16:21:22;;;;;;;13.67;10.93;;;7.10;99.90;;;;;;4945174;29;20461;-75
2021/12/17 16:23:51;;;;;;;20.17;11.20;;;7.00;99.90;;;;;;4946610;28;20460;-75
2021/12/17 16:26:20;;;;;;;17.90;12.43;;;7.00;99.90;;;;;;4947070;29;21109;-76
2021/12/17 16:28:49;;;;;;;18.43;12.60;;;6.90;99.90;;;;;;4956023;29;20469;-75
2021/12/17 16:31:18;;;;;;;17.43;12.53;;;6.80;99.90;;;;;;4956094;29;20990;-74
2021/12/17 16:33:46;;;;;;;18.47;12.60;;;6.80;99.90;;;;;;4956148;29;20464;-75
2021/12/17 16:36:13;;;;;;;17.03;12.23;;;6.80;99.90;;;;;;4949255;29;20488;-75
2021/12/17 16:38:41;;;;;;;19.27;13.43;;;6.80;99.90;;;;;;4936964;29;20557;-74
2021/12/17 16:41:09;;;;;;;18.97;13.80;;;6.70;99.90;;;;;;4936762;29;20501;-65
2021/12/17 16:43:37;;;;;;;19.57;13.37;;;6.70;99.90;;;;;;4945526;29;20547;-67
2021/12/17 16:46:24;;;;;;;20.43;13.83;;;6.70;99.90;;;;;;4954624;29;20491;-75
2021/12/17 16:48:53;;;;;;;17.80;13.30;;;6.70;99.90;;;;;;4954455;28;20513;-74
2021/12/17 16:51:20;;;;;;;15.60;12.00;;;6.60;99.90;;;;;;4955628;28;20452;-75
2021/12/17 16:53:48;;;;;;;20.43;14.27;;;6.60;99.90;;;;;;4955488;29;20472;-75
2021/12/17 16:56:16;;;;;;;18.10;13.53;;;6.60;99.90;;;;;;4955273;29;20449;-77
2021/12/17 16:58:43;;;;;;;21.53;14.63;;;6.70;99.90;;;;;;4954536;28;20564;-75
2021/12/17 17:01:18;;;;;;;16.97;12.57;;;6.70;99.90;;;;;;4954923;29;20461;-76
2021/12/17 17:03:46;;;;;;;20.10;12.60;;;6.60;99.90;;;;;;4954126;29;20525;-75
2021/12/17 17:06:16;;;;;;;20.73;13.37;;;6.60;99.90;;;;;;4954681;29;20524;-76
2021/12/17 17:08:46;;;;;;;16.27;12.20;;;6.70;99.90;;;;;;4954273;29;20563;-77
2021/12/17 17:11:15;;;;;;;19.70;13.50;;;6.70;99.90;;;;;;4954548;29;20457;-77
2021/12/17 17:13:57;;;;;;;21.67;14.00;;;6.60;99.90;;;;;;4946563;29;20492;-76
2021/12/17 17:16:33;;;;;;;18.83;13.70;;;6.50;99.90;;;;;;4947339;29;20527;-76
2021/12/17 17:19:03;;;;;;;21.10;13.70;;;6.50;99.90;;;;;;4952056;28;20555;-76
2021/12/17 17:21:30;;;;;;;18.40;12.90;;;6.50;99.90;;;;;;4937862;29;20544;-76
2021/12/17 17:24:00;;;;;;;17.60;13.13;;;6.50;99.90;;;;;;4935052;29;20457;-78
2021/12/17 17:26:31;;;;;;;22.00;13.97;;;6.50;99.90;;;;;;4935144;29;20552;-76
2021/12/17 17:29:10;;;;;;;19.30;13.20;;;6.40;99.90;;;;;;4935041;29;20477;-76
2021/12/17 17:31:38;;;;;;;20.00;14.00;;;6.40;99.90;;;;;;4939778;29;21101;-77
2021/12/17 17:34:08;;;;;;;21.97;14.50;;;6.40;99.90;;;;;;4950850;29;20481;-76
2021/12/17 17:36:39;;;;;;;21.07;14.30;;;6.30;99.90;;;;;;4953904;29;20459;-76
2021/12/17 17:39:17;;;;;;;24.10;15.80;;;6.30;99.90;;;;;;4953841;29;20559;-77
2021/12/17 17:41:45;;;;;;;23.67;15.20;;;6.30;99.90;;;;;;4954282;29;20451;-76
2021/12/17 17:44:15;;;;;;;18.83;13.87;;;6.30;99.90;;;;;;4954361;29;20464;-77
2021/12/17 17:46:46;;;;;;;21.10;13.17;;;6.30;99.90;;;;;;4955001;28;20584;-77
2021/12/17 17:49:16;;;;;;;18.37;12.93;;;6.20;99.90;;;;;;4953839;28;20568;-76
2021/12/17 17:51:43;;;;;;;20.80;14.60;;;6.10;99.90;;;;;;4955103;29;20552;-76
2021/12/17 17:54:16;;;;;;;20.80;14.30;;;6.00;99.90;;;;;;4954336;29;20448;-76
2021/12/17 17:56:48;;;;;;;26.33;14.83;;;6.10;99.90;;;;;;4954522;29;20469;-76
2021/12/17 17:59:15;;;;;;;23.93;15.30;;;6.00;99.90;;;;;;4954104;29;20948;-76
2021/12/17 18:01:43;;;;;;;23.13;15.77;;;6.00;99.90;;;;;;4954404;29;20532;-76
2021/12/17 18:04:10;;;;;;;24.90;15.30;;;6.00;99.90;;;;;;4954430;29;20492;-76
2021/12/17 18:06:37;;;;;;;24.10;17.40;;;6.00;99.90;;;;;;4954532;29;20500;-76
2021/12/17 18:09:04;;;;;;;22.87;16.37;;;6.00;99.90;;;;;;4954739;29;20508;-77
2021/12/17 18:11:31;;;;;;;21.77;14.80;;;6.10;99.90;;;;;;4954924;29;20484;-77
2021/12/17 18:13:58;;;;;;;22.77;15.50;;;6.10;99.90;;;;;;4955141;29;20457;-77
2021/12/17 18:16:26;;;;;;;20.37;13.80;;;6.20;99.90;;;;;;4955072;29;20885;-76
2021/12/17 18:18:54;;;;;;;19.83;13.87;;;6.10;99.90;;;;;;4954939;29;20477;-77
2021/12/17 18:21:21;;;;;;;28.80;20.57;;;6.10;99.90;;;;;;4954867;29;20969;-76
2021/12/17 18:23:50;;;;;;;30.80;19.57;;;6.10;99.90;;;;;;4955108;29;20547;-75
2021/12/17 18:26:17;;;;;;;25.17;15.70;;;6.10;99.90;;;;;;4954307;29;20496;-71
2021/12/17 18:28:44;;;;;;;22.73;15.10;;;6.10;99.90;;;;;;4954300;29;20547;-70
2021/12/17 18:31:10;;;;;;;23.20;15.50;;;6.10;99.90;;;;;;4953247;28;20543;-76
2021/12/17 18:33:37;;;;;;;20.90;15.20;;;6.10;99.90;;;;;;4954216;29;20511;-76
2021/12/17 18:36:06;;;;;;;20.77;14.13;;;6.20;99.90;;;;;;4954266;29;20488;-74
2021/12/17 18:38:36;;;;;;;26.40;15.93;;;6.10;99.90;;;;;;4953969;29;21009;-75
2021/12/17 18:41:07;;;;;;;26.47;16.87;;;6.10;99.90;;;;;;4953967;29;20464;-74
2021/12/17 18:46:19;;;;;;;28.63;17.87;;;6.10;99.90;;;;;;4954169;29;20480;-73
2021/12/17 18:48:46;;;;;;;29.20;18.10;;;6.10;99.90;;;;;;4953744;29;20536;-73
2021/12/17 18:51:16;;;;;;;26.10;16.70;;;6.10;99.90;;;;;;4953837;29;20548;-77
2021/12/17 18:53:44;;;;;;;23.23;15.70;;;6.10;99.90;;;;;;4954117;29;20468;-75
2021/12/17 18:56:11;;;;;;;25.17;15.80;;;6.10;99.90;;;;;;4953841;29;20459;-74
2021/12/17 18:58:38;;;;;;;23.07;16.57;;;6.10;99.90;;;;;;4953629;29;21006;-78